Del Mar, California
Current Conditions -  °F | °C
As of 11:55 PM on Thursday 18 Dec 2014 (Local Time) from KNKX Reporting Station
Few Clouds Few Clouds  
Wind Chill: 52°   Ceiling: Unl
Heat Index: 52°   Visibility: 10mi
Dew Point: 46°   Wind: 9mph
Humidity: 80%   Direction: 70°ENE
Pressure: 30.2"   Gusts: NA
Location:  32.96°N, 117.27°W
Report Text: KNKX 190755Z 07008KT 10SM FEW040 11/08 A3020 RMK AO2 SLP222 T01110078 401830100
Loading
Personal Weather Stations






























Interactive Weather Map New forecast layout! Learn more

10-Day Weather Forecast

Advertisements
Track Severe Weather on mobile